createdAt,value
2018-09-16T00:00:13.989Z,22.80
2018-09-16T00:02:41.552Z,22.81
2018-09-16T00:05:08.249Z,22.79
2018-09-16T00:07:35.872Z,22.83
2018-09-16T00:10:03.342Z,22.79
2018-09-16T00:12:30.004Z,22.79
2018-09-16T00:14:56.666Z,22.79
2018-09-16T00:17:25.132Z,22.80
2018-09-16T00:19:53.821Z,22.81
2018-09-16T00:22:21.542Z,22.76
2018-09-16T00:24:49.100Z,22.79
2018-09-16T00:27:15.752Z,22.82
2018-09-16T00:29:43.539Z,22.79
2018-09-16T00:32:15.920Z,22.76
2018-09-16T00:34:51.685Z,22.72
2018-09-16T00:37:19.160Z,22.77
2018-09-16T00:39:45.824Z,22.81
2018-09-16T00:42:13.377Z,22.76
2018-09-16T00:44:40.999Z,22.76
2018-09-16T00:47:08.605Z,22.82
2018-09-16T00:49:36.329Z,22.77
2018-09-16T00:52:03.933Z,22.78
2018-09-16T00:54:31.596Z,22.75
2018-09-16T00:56:59.265Z,22.76
2018-09-16T00:59:26.879Z,22.81
2018-09-16T01:01:54.395Z,22.78
2018-09-16T01:04:21.065Z,22.79
2018-09-16T01:06:48.712Z,22.75
2018-09-16T01:09:15.907Z,22.77
2018-09-16T01:11:42.547Z,22.77
2018-09-16T01:14:10.380Z,22.79
2018-09-16T01:16:37.987Z,22.79
2018-09-16T01:19:05.588Z,22.79
2018-09-16T01:21:32.259Z,22.79
2018-09-16T01:23:59.218Z,22.82
2018-09-16T01:26:25.899Z,22.77
2018-09-16T01:28:55.110Z,22.75
2018-09-16T01:31:24.271Z,22.77
2018-09-16T01:33:50.923Z,22.72
2018-09-16T01:36:17.625Z,22.72
2018-09-16T01:38:50.301Z,22.73
2018-09-16T01:41:17.956Z,22.73
2018-09-16T01:43:44.616Z,22.74
2018-09-16T01:46:12.233Z,22.72
2018-09-16T01:48:38.898Z,22.72
2018-09-16T01:51:06.413Z,22.73
2018-09-16T01:53:33.072Z,22.73
2018-09-16T01:56:01.033Z,22.71
2018-09-16T01:58:27.761Z,22.75
2018-09-16T02:00:55.292Z,22.70
2018-09-16T02:03:24.256Z,22.73
2018-09-16T02:05:54.915Z,22.72
2018-09-16T02:08:25.448Z,22.71
2018-09-16T02:10:52.116Z,22.71
2018-09-16T02:13:18.808Z,22.71
2018-09-16T02:15:46.509Z,22.71
2018-09-16T02:18:14.156Z,22.70
2018-09-16T02:20:40.965Z,22.69
2018-09-16T02:23:09.122Z,22.71
2018-09-16T02:25:36.736Z,22.70
2018-09-16T02:28:04.396Z,22.71
2018-09-16T02:30:31.994Z,22.68
2018-09-16T02:32:59.604Z,22.70
2018-09-16T02:35:27.293Z,22.70
2018-09-16T02:37:54.753Z,22.70
2018-09-16T02:40:23.849Z,22.72
2018-09-16T02:42:51.457Z,22.71
2018-09-16T02:45:18.159Z,22.72
2018-09-16T02:47:44.854Z,22.73
2018-09-16T02:50:11.536Z,22.71
2018-09-16T02:52:39.184Z,22.71
2018-09-16T02:55:05.894Z,22.72
2018-09-16T02:57:33.453Z,22.70
2018-09-16T03:00:00.922Z,22.69
2018-09-16T03:02:28.405Z,22.69
2018-09-16T03:04:57.040Z,22.68
2018-09-16T03:07:25.676Z,22.67
2018-09-16T03:09:54.890Z,22.68
2018-09-16T03:12:21.536Z,22.68
2018-09-16T03:14:49.117Z,22.67
2018-09-16T03:17:16.678Z,22.66
2018-09-16T03:19:44.363Z,22.68
2018-09-16T03:22:11.940Z,22.70
2018-09-16T03:24:39.638Z,22.65
2018-09-16T03:27:07.329Z,22.65
2018-09-16T03:29:34.945Z,22.65
2018-09-16T03:32:02.504Z,22.64
2018-09-16T03:34:29.148Z,22.66
2018-09-16T03:36:56.685Z,22.65
2018-09-16T03:39:25.237Z,22.67
2018-09-16T03:41:52.032Z,22.65
2018-09-16T03:44:18.688Z,22.66
2018-09-16T03:46:46.134Z,22.65
2018-09-16T03:49:13.684Z,22.65
2018-09-16T03:51:40.344Z,22.65
2018-09-16T03:54:07.048Z,22.68
2018-09-16T03:56:34.689Z,22.67
2018-09-16T03:59:02.323Z,22.65
2018-09-16T04:01:29.828Z,22.66
2018-09-16T04:03:56.482Z,22.67
2018-09-16T04:06:25.375Z,22.68
2018-09-16T04:08:54.400Z,22.64
2018-09-16T04:11:21.889Z,22.65
2018-09-16T04:13:48.593Z,22.68
2018-09-16T04:16:16.062Z,22.70
2018-09-16T04:18:42.933Z,22.72
2018-09-16T04:21:09.809Z,22.66
2018-09-16T04:23:39.787Z,22.65
2018-09-16T04:26:08.439Z,22.64
2018-09-16T04:28:35.108Z,22.65
2018-09-16T04:31:01.773Z,22.68
2018-09-16T04:33:28.449Z,22.69
2018-09-16T04:35:56.028Z,22.67
2018-09-16T04:38:23.485Z,22.65
2018-09-16T04:40:51.833Z,22.63
2018-09-16T04:43:18.502Z,22.65
2018-09-16T04:45:45.863Z,22.65
2018-09-16T04:48:12.504Z,22.65
2018-09-16T04:50:39.166Z,22.64
2018-09-16T04:53:05.841Z,22.63
2018-09-16T04:55:46.945Z,22.61
2018-09-16T04:58:13.708Z,22.60
2018-09-16T05:00:40.360Z,22.61
2018-09-16T05:03:07.036Z,22.63
2018-09-16T05:05:34.188Z,22.64
2018-09-16T05:08:01.652Z,22.65
2018-09-16T05:10:28.896Z,22.63
2018-09-16T05:12:55.665Z,22.62
2018-09-16T05:15:25.079Z,22.60
2018-09-16T05:17:54.464Z,22.60
2018-09-16T05:20:21.121Z,22.58
2018-09-16T05:22:48.943Z,22.58
2018-09-16T05:25:15.584Z,22.59
2018-09-16T05:27:42.275Z,22.60
2018-09-16T05:30:09.860Z,22.59
2018-09-16T05:32:37.481Z,22.62
2018-09-16T05:35:05.045Z,22.60
2018-09-16T05:37:32.805Z,22.60
2018-09-16T05:40:00.466Z,22.62
2018-09-16T05:42:28.102Z,22.60
2018-09-16T05:44:55.716Z,22.57
2018-09-16T05:47:24.908Z,22.54
2018-09-16T05:49:51.952Z,22.54
2018-09-16T05:52:18.648Z,22.57
2018-09-16T05:54:46.142Z,22.57
2018-09-16T05:57:13.747Z,22.56
2018-09-16T05:59:41.413Z,22.58
2018-09-16T06:02:09.233Z,22.58
2018-09-16T06:04:36.879Z,22.60
2018-09-16T06:07:04.494Z,22.63
2018-09-16T06:09:32.100Z,22.63
2018-09-16T06:11:59.715Z,22.62
2018-09-16T06:14:27.294Z,22.61
2018-09-16T06:16:55.140Z,22.61
2018-09-16T06:19:23.056Z,22.61
2018-09-16T06:21:50.757Z,22.62
2018-09-16T06:24:18.389Z,22.64
2018-09-16T06:26:45.061Z,22.63
2018-09-16T06:29:11.720Z,22.64
2018-09-16T06:31:39.324Z,22.65
2018-09-16T06:34:05.969Z,22.66
2018-09-16T06:36:33.592Z,22.66
2018-09-16T06:39:00.336Z,22.64
2018-09-16T06:41:27.122Z,22.65
2018-09-16T06:43:56.280Z,22.66
2018-09-16T06:46:25.896Z,22.70
2018-09-16T06:48:54.595Z,22.68
2018-09-16T06:51:21.273Z,22.67
2018-09-16T06:53:47.984Z,22.73
2018-09-16T06:56:14.638Z,22.74
2018-09-16T06:58:41.465Z,22.74
2018-09-16T07:01:09.028Z,22.76
2018-09-16T07:03:35.676Z,22.76
2018-09-16T07:06:02.318Z,22.75
2018-09-16T07:08:29.061Z,22.78
2018-09-16T07:10:56.722Z,22.74
2018-09-16T07:13:25.047Z,22.75
2018-09-16T07:15:53.396Z,22.75
2018-09-16T07:18:20.892Z,22.74
2018-09-16T07:20:47.732Z,22.79
2018-09-16T07:23:15.456Z,22.77
2018-09-16T07:25:43.227Z,22.77
2018-09-16T07:28:10.780Z,22.79
2018-09-16T07:30:38.484Z,22.84
2018-09-16T07:33:06.052Z,22.81
2018-09-16T07:35:32.805Z,22.82
2018-09-16T07:38:00.452Z,22.87
2018-09-16T07:40:27.728Z,22.89
2018-09-16T07:42:56.288Z,22.87
2018-09-16T07:45:26.320Z,22.94
2018-09-16T07:47:55.096Z,22.92
2018-09-16T07:50:24.093Z,22.93
2018-09-16T07:52:51.669Z,22.96
2018-09-16T07:55:19.172Z,23.09
2018-09-16T07:57:46.881Z,23.17
2018-09-16T08:00:13.522Z,23.24
2018-09-16T08:02:40.232Z,23.29
2018-09-16T08:05:07.806Z,23.34
2018-09-16T08:07:35.509Z,23.41
2018-09-16T08:10:02.169Z,23.48
2018-09-16T08:12:29.820Z,23.51
2018-09-16T08:14:56.505Z,23.55
2018-09-16T08:17:24.937Z,23.58
2018-09-16T08:19:53.340Z,23.59
2018-09-16T08:22:20.039Z,23.58
2018-09-16T08:24:46.740Z,23.58
2018-09-16T08:27:14.283Z,23.55
2018-09-16T08:29:41.966Z,23.53
2018-09-16T08:32:09.519Z,23.50
2018-09-16T08:34:36.167Z,23.50
2018-09-16T08:37:02.812Z,23.48
2018-09-16T08:39:30.360Z,23.45
2018-09-16T08:41:57.861Z,23.45
2018-09-16T08:44:25.682Z,23.43
2018-09-16T08:46:55.069Z,23.43
2018-09-16T08:49:21.780Z,23.44
2018-09-16T08:51:49.778Z,23.45
2018-09-16T08:54:16.457Z,23.44
2018-09-16T08:56:43.088Z,23.45
2018-09-16T08:59:09.722Z,23.43
2018-09-16T09:01:37.162Z,23.44
2018-09-16T09:04:03.863Z,23.43
2018-09-16T09:06:31.345Z,23.41
2018-09-16T09:08:57.984Z,23.40
2018-09-16T09:11:25.638Z,23.38
2018-09-16T09:13:55.018Z,23.37
2018-09-16T09:16:21.782Z,23.35
2018-09-16T09:18:48.424Z,23.34
2018-09-16T09:21:16.205Z,23.37
2018-09-16T09:23:42.922Z,23.34
2018-09-16T09:26:09.713Z,23.35
2018-09-16T09:28:37.545Z,23.36
2018-09-16T09:31:04.206Z,23.36
2018-09-16T09:33:32.454Z,23.34
2018-09-16T09:36:02.044Z,23.33
2018-09-16T09:38:28.725Z,23.34
2018-09-16T09:40:56.835Z,23.35
2018-09-16T09:43:25.358Z,23.35
2018-09-16T09:45:52.018Z,23.33
2018-09-16T09:48:19.706Z,23.33
2018-09-16T09:50:46.408Z,23.32
2018-09-16T09:53:13.169Z,23.32
2018-09-16T09:55:39.904Z,23.31
2018-09-16T09:58:07.585Z,23.31
2018-09-16T10:00:40.049Z,23.31
2018-09-16T10:03:07.821Z,23.27
2018-09-16T10:05:34.509Z,23.33
2018-09-16T10:08:02.249Z,23.33
2018-09-16T10:10:29.059Z,23.32
2018-09-16T10:12:55.725Z,23.30
2018-09-16T10:15:23.601Z,23.27
2018-09-16T10:17:51.120Z,23.28
2018-09-16T10:20:17.944Z,23.29
2018-09-16T10:22:44.649Z,23.30
2018-09-16T10:25:12.172Z,23.31
2018-09-16T10:27:39.266Z,23.28
2018-09-16T10:30:05.913Z,23.29
2018-09-16T10:32:32.574Z,23.29
2018-09-16T10:34:59.209Z,23.29
2018-09-16T10:37:25.867Z,23.29
2018-09-16T10:39:53.208Z,23.29
2018-09-16T10:42:20.656Z,23.29
2018-09-16T10:44:47.315Z,23.28
2018-09-16T10:47:13.966Z,23.27
2018-09-16T10:49:40.763Z,23.26
2018-09-16T10:52:08.361Z,23.24
2018-09-16T10:54:35.102Z,23.26
2018-09-16T10:57:01.868Z,23.26
2018-09-16T10:59:28.650Z,23.25
2018-09-16T11:01:56.068Z,23.25
2018-09-16T11:04:23.643Z,23.25
2018-09-16T11:06:50.341Z,23.25
2018-09-16T11:09:17.913Z,23.24
2018-09-16T11:11:44.612Z,23.24
2018-09-16T11:14:12.272Z,23.23
2018-09-16T11:16:39.982Z,23.23
2018-09-16T11:19:06.693Z,23.24
2018-09-16T11:21:34.182Z,23.25
2018-09-16T11:24:00.923Z,23.24
2018-09-16T11:26:28.532Z,23.23
2018-09-16T11:28:57.435Z,23.22
2018-09-16T11:31:26.349Z,23.22
2018-09-16T11:33:55.232Z,23.19
2018-09-16T11:36:24.925Z,23.21
2018-09-16T11:38:51.576Z,23.19
2018-09-16T11:41:18.302Z,23.23
2018-09-16T11:43:46.101Z,23.34
2018-09-16T11:46:12.756Z,23.31
2018-09-16T11:48:40.409Z,23.39
2018-09-16T11:51:07.920Z,23.47
2018-09-16T11:53:35.452Z,23.48
2018-09-16T11:56:03.068Z,23.48
2018-09-16T11:58:30.712Z,23.53
2018-09-16T12:00:57.365Z,23.59
2018-09-16T12:03:25.148Z,23.60
2018-09-16T12:05:54.660Z,23.61
2018-09-16T12:08:21.320Z,23.58
2018-09-16T12:10:48.973Z,23.59
2018-09-16T12:13:15.640Z,23.58
2018-09-16T12:15:42.293Z,23.61
2018-09-16T12:18:08.948Z,23.61
2018-09-16T12:20:35.588Z,23.65
2018-09-16T12:23:02.265Z,23.70
2018-09-16T12:25:28.927Z,23.67
2018-09-16T12:27:56.089Z,23.70
2018-09-16T12:30:24.713Z,23.71
2018-09-16T12:32:53.258Z,23.61
2018-09-16T12:35:20.941Z,23.60
2018-09-16T12:37:47.581Z,23.57
2018-09-16T12:40:14.316Z,23.54
2018-09-16T12:42:41.993Z,23.53
2018-09-16T12:45:08.638Z,23.52
2018-09-16T12:47:38.281Z,23.51
2018-09-16T12:50:06.168Z,23.50
2018-09-16T12:52:32.802Z,23.50
2018-09-16T12:55:00.384Z,23.50
2018-09-16T12:57:27.916Z,23.51
2018-09-16T12:59:56.052Z,23.51
2018-09-16T13:02:25.683Z,23.48
2018-09-16T13:04:55.152Z,23.45
2018-09-16T13:07:23.522Z,23.45
2018-09-16T13:09:51.176Z,23.45
2018-09-16T13:12:18.912Z,23.47
2018-09-16T13:14:45.593Z,23.44
2018-09-16T13:17:13.096Z,23.44
2018-09-16T13:19:40.655Z,23.41
2018-09-16T13:22:08.224Z,23.41
2018-09-16T13:24:35.876Z,23.42
2018-09-16T13:27:03.566Z,23.43
2018-09-16T13:29:30.409Z,23.41
2018-09-16T13:31:58.029Z,23.41
2018-09-16T13:34:25.728Z,23.40
2018-09-16T13:36:54.804Z,23.39
2018-09-16T13:39:23.290Z,23.37
2018-09-16T13:41:49.968Z,23.38
2018-09-16T13:44:17.536Z,23.39
2018-09-16T13:46:45.300Z,23.38
2018-09-16T13:49:11.972Z,23.37
2018-09-16T13:51:38.617Z,23.37
2018-09-16T13:54:06.046Z,23.37
2018-09-16T13:56:33.697Z,23.37
2018-09-16T13:59:01.388Z,23.36
2018-09-16T14:01:28.353Z,23.37
2018-09-16T14:03:55.925Z,23.37
2018-09-16T14:06:25.165Z,23.37
2018-09-16T14:08:51.808Z,23.36
2018-09-16T14:11:19.509Z,23.35
2018-09-16T14:13:47.104Z,23.36
2018-09-16T14:16:13.784Z,23.35
2018-09-16T14:18:41.430Z,23.35
2018-09-16T14:21:08.165Z,23.34
2018-09-16T14:23:34.805Z,23.35
2018-09-16T14:26:01.793Z,23.36
2018-09-16T14:28:29.412Z,23.35
2018-09-16T14:30:57.064Z,23.33
2018-09-16T14:33:27.091Z,23.33
2018-09-16T14:35:56.612Z,23.32
2018-09-16T14:38:24.340Z,23.31
2018-09-16T14:40:52.064Z,23.31
2018-09-16T14:43:18.717Z,23.29
2018-09-16T14:45:45.405Z,23.32
2018-09-16T14:48:12.089Z,23.32
2018-09-16T14:50:38.737Z,23.32
2018-09-16T14:53:05.375Z,23.32
2018-09-16T14:55:32.262Z,23.32
2018-09-16T14:57:58.917Z,23.33
2018-09-16T15:00:25.765Z,23.34
2018-09-16T15:02:53.150Z,23.34
2018-09-16T15:05:19.793Z,23.30
2018-09-16T15:07:46.450Z,23.29
2018-09-16T15:10:13.183Z,23.28
2018-09-16T15:12:39.957Z,23.32
2018-09-16T15:15:06.600Z,23.31
2018-09-16T15:17:33.244Z,23.31
2018-09-16T15:19:59.879Z,23.32
2018-09-16T15:22:26.520Z,23.31
2018-09-16T15:24:54.718Z,23.33
2018-09-16T15:27:21.540Z,23.31
2018-09-16T15:29:49.045Z,23.29
2018-09-16T15:32:16.686Z,23.29
2018-09-16T15:34:44.308Z,23.29
2018-09-16T15:37:10.952Z,23.28
2018-09-16T15:39:37.917Z,23.27
2018-09-16T15:42:04.556Z,23.28
2018-09-16T15:44:32.048Z,23.29
2018-09-16T15:46:59.639Z,23.26
2018-09-16T15:49:27.236Z,23.28
2018-09-16T15:51:56.129Z,23.29
2018-09-16T15:54:25.720Z,23.26
2018-09-16T15:56:54.418Z,23.27
2018-09-16T15:59:21.182Z,23.23
2018-09-16T16:01:48.773Z,23.25
2018-09-16T16:04:16.352Z,23.27
2018-09-16T16:06:44.037Z,23.27
2018-09-16T16:09:12.183Z,23.26
2018-09-16T16:11:40.323Z,23.24
2018-09-16T16:14:07.837Z,23.23
2018-09-16T16:16:35.765Z,23.25
2018-09-16T16:19:03.252Z,23.26
2018-09-16T16:21:30.924Z,23.24
2018-09-16T16:23:58.500Z,23.22
2018-09-16T16:26:26.165Z,23.21
2018-09-16T16:28:56.558Z,23.22
2018-09-16T16:31:25.252Z,23.22
2018-09-16T16:33:53.808Z,23.21
2018-09-16T16:36:20.833Z,23.21
2018-09-16T16:38:48.384Z,23.23
2018-09-16T16:41:16.020Z,23.22
2018-09-16T16:43:43.632Z,23.23
2018-09-16T16:46:11.249Z,23.21
2018-09-16T16:48:38.836Z,23.21
2018-09-16T16:51:05.481Z,23.22
2018-09-16T16:53:32.124Z,23.22
2018-09-16T16:56:00.059Z,23.23
2018-09-16T16:58:26.913Z,23.20
2018-09-16T17:00:55.589Z,23.21
2018-09-16T17:03:23.531Z,23.22
2018-09-16T17:05:50.393Z,23.17
2018-09-16T17:08:17.012Z,23.20
2018-09-16T17:10:43.646Z,23.20
2018-09-16T17:13:11.225Z,23.20
2018-09-16T17:15:37.860Z,23.19
2018-09-16T17:18:05.429Z,23.17
2018-09-16T17:20:32.069Z,23.13
2018-09-16T17:22:58.684Z,23.12
2018-09-16T17:25:26.005Z,23.13
2018-09-16T17:27:55.676Z,23.14
2018-09-16T17:30:23.658Z,23.11
2018-09-16T17:32:51.261Z,23.16
2018-09-16T17:35:18.792Z,23.14
2018-09-16T17:37:45.469Z,23.14
2018-09-16T17:40:13.208Z,23.17
2018-09-16T17:42:40.760Z,23.18
2018-09-16T17:45:08.415Z,23.14
2018-09-16T17:47:36.027Z,23.13
2018-09-16T17:50:02.712Z,23.08
2018-09-16T17:52:29.369Z,23.13
2018-09-16T17:54:57.060Z,23.10
2018-09-16T17:57:25.828Z,23.10
2018-09-16T17:59:55.423Z,23.07
2018-09-16T18:02:25.051Z,23.07
2018-09-16T18:04:51.673Z,23.13
2018-09-16T18:07:19.367Z,23.16
2018-09-16T18:09:46.037Z,23.09
2018-09-16T18:12:13.658Z,23.15
2018-09-16T18:14:41.319Z,23.12
2018-09-16T18:17:09.119Z,23.10
2018-09-16T18:19:36.681Z,23.06
2018-09-16T18:22:05.075Z,23.03
2018-09-16T18:24:32.757Z,22.96
2018-09-16T18:26:59.407Z,23.03
2018-09-16T18:29:26.115Z,23.15
2018-09-16T18:31:53.609Z,23.20
2018-09-16T18:34:20.401Z,23.27
2018-09-16T18:36:47.276Z,23.33
2018-09-16T18:39:13.912Z,23.36
2018-09-16T18:41:40.622Z,23.37
2018-09-16T18:44:07.260Z,23.38
2018-09-16T18:46:34.864Z,23.36
2018-09-16T18:49:01.905Z,23.38
2018-09-16T18:51:29.484Z,23.38
2018-09-16T18:53:56.115Z,23.36
2018-09-16T18:56:25.951Z,23.36
2018-09-16T18:58:55.703Z,23.34
2018-09-16T19:01:23.344Z,23.30
2018-09-16T19:03:51.087Z,23.29
2018-09-16T19:06:17.681Z,23.28
2018-09-16T19:08:44.321Z,23.29
2018-09-16T19:11:10.957Z,23.33
2018-09-16T19:13:38.428Z,23.32
2018-09-16T19:16:05.101Z,23.33
2018-09-16T19:18:31.737Z,23.32
2018-09-16T19:20:59.307Z,23.33
2018-09-16T19:23:26.864Z,23.31
2018-09-16T19:25:54.526Z,23.31
2018-09-16T19:28:21.213Z,23.29
2018-09-16T19:30:48.741Z,23.28
2018-09-16T19:33:16.374Z,23.25
2018-09-16T19:35:43.037Z,23.22
2018-09-16T19:38:09.704Z,23.28
2018-09-16T19:40:36.402Z,23.27
2018-09-16T19:43:03.172Z,23.26
2018-09-16T19:45:30.717Z,23.31
2018-09-16T19:47:57.417Z,23.28
2018-09-16T19:50:25.412Z,23.29
2018-09-16T19:52:52.064Z,23.25
2018-09-16T19:55:18.916Z,23.25
2018-09-16T19:57:45.612Z,23.25
2018-09-16T20:00:13.412Z,23.24
2018-09-16T20:02:40.000Z,23.22
2018-09-16T20:05:06.705Z,23.20
2018-09-16T20:07:33.360Z,23.18
2018-09-16T20:10:01.069Z,23.24
2018-09-16T20:12:27.780Z,23.17
2018-09-16T20:14:55.118Z,23.15
2018-09-16T20:17:21.780Z,23.14
2018-09-16T20:19:48.490Z,23.17
2018-09-16T20:22:15.430Z,23.18
2018-09-16T20:24:42.120Z,23.15
2018-09-16T20:27:08.850Z,23.15
2018-09-16T20:29:35.467Z,23.07
2018-09-16T20:32:02.488Z,23.02
2018-09-16T20:34:29.390Z,23.04
2018-09-16T20:36:56.213Z,23.10
2018-09-16T20:39:23.912Z,23.10
2018-09-16T20:41:50.604Z,23.13
2018-09-16T20:44:17.240Z,23.10
2018-09-16T20:46:44.777Z,23.03
2018-09-16T20:49:12.328Z,23.12
2018-09-16T20:51:38.956Z,23.14
2018-09-16T20:54:05.612Z,23.14
2018-09-16T20:56:32.340Z,23.16
2018-09-16T20:58:59.177Z,23.18
2018-09-16T21:01:27.264Z,23.10
2018-09-16T21:03:53.949Z,23.10
2018-09-16T21:06:20.612Z,23.11
2018-09-16T21:08:48.632Z,23.07
2018-09-16T21:11:15.916Z,23.05
2018-09-16T21:13:42.593Z,23.06
2018-09-16T21:16:09.406Z,23.07
2018-09-16T21:18:36.077Z,23.09
2018-09-16T21:21:02.917Z,23.06
2018-09-16T21:23:29.599Z,23.04
2018-09-16T21:25:56.785Z,23.00
2018-09-16T21:28:25.064Z,22.97
2018-09-16T21:30:51.709Z,22.99
2018-09-16T21:33:19.396Z,22.95
2018-09-16T21:35:46.028Z,22.91
2018-09-16T21:38:12.776Z,22.97
2018-09-16T21:40:39.416Z,22.93
2018-09-16T21:43:06.171Z,22.91
2018-09-16T21:45:32.820Z,22.85
2018-09-16T21:47:59.497Z,22.88
2018-09-16T21:50:26.325Z,22.89
2018-09-16T21:52:54.172Z,22.91
2018-09-16T21:55:23.100Z,22.88
2018-09-16T21:57:49.793Z,22.87
2018-09-16T22:00:16.523Z,22.90
2018-09-16T22:02:43.208Z,22.87
2018-09-16T22:05:09.846Z,22.88
2018-09-16T22:07:36.500Z,22.87
2018-09-16T22:10:03.209Z,22.84
2018-09-16T22:12:29.852Z,22.91
2018-09-16T22:14:56.506Z,22.88
2018-09-16T22:17:24.056Z,22.88
2018-09-16T22:19:51.662Z,22.90
2018-09-16T22:22:19.303Z,22.86
2018-09-16T22:24:45.961Z,22.89
2018-09-16T22:27:13.548Z,22.87
2018-09-16T22:29:40.187Z,22.87
2018-09-16T22:32:07.851Z,22.87
2018-09-16T22:34:35.417Z,22.86
2018-09-16T22:37:02.906Z,22.85
2018-09-16T22:39:29.552Z,22.86
2018-09-16T22:41:57.212Z,22.88
2018-09-16T22:44:26.535Z,22.90
2018-09-16T22:46:53.604Z,22.87
2018-09-16T22:49:21.244Z,22.84
2018-09-16T22:51:48.916Z,22.89
2018-09-16T22:54:16.544Z,22.90
2018-09-16T22:56:44.182Z,22.85
2018-09-16T22:59:10.828Z,22.85
2018-09-16T23:01:37.481Z,22.85
2018-09-16T23:04:04.133Z,22.88
2018-09-16T23:06:31.679Z,22.86
2018-09-16T23:09:04.000Z,22.87
2018-09-16T23:11:30.682Z,22.82
2018-09-16T23:13:57.345Z,22.82
2018-09-16T23:16:23.985Z,22.85
2018-09-16T23:18:51.496Z,22.84
2018-09-16T23:21:18.146Z,22.83
2018-09-16T23:23:45.750Z,22.83
2018-09-16T23:26:13.557Z,22.79
2018-09-16T23:28:40.211Z,22.84
2018-09-16T23:31:06.855Z,22.87
2018-09-16T23:33:33.504Z,22.85
2018-09-16T23:36:01.066Z,22.84
2018-09-16T23:38:27.700Z,22.85
2018-09-16T23:40:55.629Z,22.84
2018-09-16T23:43:23.308Z,22.82
2018-09-16T23:45:49.960Z,22.84
2018-09-16T23:48:17.469Z,22.86
2018-09-16T23:50:45.064Z,22.85
2018-09-16T23:53:11.732Z,22.84
2018-09-16T23:55:39.182Z,22.79
2018-09-16T23:58:05.832Z,22.79
